sensor_id;sensor_type;location;lat;lon;timestamp;P1;durP1;ratioP1;P2;durP2;ratioP2
45114;SDS011;30877;43.706;10.780;2022-10-04T00:02:25;9.20;;;2.42;;
45114;SDS011;30877;43.706;10.780;2022-10-04T00:04:56;7.65;;;2.08;;
45114;SDS011;30877;43.706;10.780;2022-10-04T00:07:30;5.90;;;1.95;;
45114;SDS011;30877;43.706;10.780;2022-10-04T00:10:03;7.68;;;2.22;;
45114;SDS011;30877;43.706;10.780;2022-10-04T00:12:44;5.25;;;1.98;;
45114;SDS011;30877;43.706;10.780;2022-10-04T00:15:17;5.88;;;2.10;;
45114;SDS011;30877;43.706;10.780;2022-10-04T00:17:58;5.50;;;1.85;;
45114;SDS011;30877;43.706;10.780;2022-10-04T00:23:26;6.80;;;2.10;;
45114;SDS011;30877;43.706;10.780;2022-10-04T00:25:58;7.20;;;2.30;;
45114;SDS011;30877;43.706;10.780;2022-10-04T00:28:29;5.20;;;2.05;;
45114;SDS011;30877;43.706;10.780;2022-10-04T00:31:19;7.57;;;1.92;;
45114;SDS011;30877;43.706;10.780;2022-10-04T00:33:52;3.70;;;1.83;;
45114;SDS011;30877;43.706;10.780;2022-10-04T00:39:26;4.55;;;1.70;;
45114;SDS011;30877;43.706;10.780;2022-10-04T00:42:12;4.82;;;1.90;;
45114;SDS011;30877;43.706;10.780;2022-10-04T00:45:05;5.22;;;2.25;;
45114;SDS011;30877;43.706;10.780;2022-10-04T00:47:57;4.80;;;2.08;;
45114;SDS011;30877;43.706;10.780;2022-10-04T00:50:37;4.57;;;2.00;;
45114;SDS011;30877;43.706;10.780;2022-10-04T00:53:11;4.00;;;1.88;;
45114;SDS011;30877;43.706;10.780;2022-10-04T00:55:46;6.13;;;1.60;;
45114;SDS011;30877;43.706;10.780;2022-10-04T00:58:19;3.60;;;1.60;;
45114;SDS011;30877;43.706;10.780;2022-10-04T01:00:50;5.30;;;1.30;;
45114;SDS011;30877;43.706;10.780;2022-10-04T01:03:22;7.63;;;2.05;;
45114;SDS011;30877;43.706;10.780;2022-10-04T01:05:56;3.78;;;1.63;;
45114;SDS011;30877;43.706;10.780;2022-10-04T01:08:27;8.05;;;2.22;;
45114;SDS011;30877;43.706;10.780;2022-10-04T01:11:00;6.18;;;1.83;;
45114;SDS011;30877;43.706;10.780;2022-10-04T01:13:36;4.70;;;1.73;;
45114;SDS011;30877;43.706;10.780;2022-10-04T01:16:08;4.20;;;1.98;;
45114;SDS011;30877;43.706;10.780;2022-10-04T01:18:40;9.35;;;2.42;;
45114;SDS011;30877;43.706;10.780;2022-10-04T01:21:19;3.75;;;2.30;;
45114;SDS011;30877;43.706;10.780;2022-10-04T01:24:14;4.75;;;2.20;;
45114;SDS011;30877;43.706;10.780;2022-10-04T01:26:43;4.60;;;2.25;;
45114;SDS011;30877;43.706;10.780;2022-10-04T01:29:13;3.78;;;2.47;;
45114;SDS011;30877;43.706;10.780;2022-10-04T01:31:44;5.82;;;2.65;;
45114;SDS011;30877;43.706;10.780;2022-10-04T01:34:14;5.07;;;1.92;;
45114;SDS011;30877;43.706;10.780;2022-10-04T01:36:44;7.82;;;2.40;;
45114;SDS011;30877;43.706;10.780;2022-10-04T01:39:16;7.78;;;2.30;;
45114;SDS011;30877;43.706;10.780;2022-10-04T01:41:47;8.55;;;2.95;;
45114;SDS011;30877;43.706;10.780;2022-10-04T01:44:22;7.50;;;2.70;;
45114;SDS011;30877;43.706;10.780;2022-10-04T01:46:54;7.60;;;3.50;;
45114;SDS011;30877;43.706;10.780;2022-10-04T01:49:25;8.60;;;2.95;;
45114;SDS011;30877;43.706;10.780;2022-10-04T01:51:57;8.88;;;3.60;;
45114;SDS011;30877;43.706;10.780;2022-10-04T01:54:35;10.55;;;3.50;;
45114;SDS011;30877;43.706;10.780;2022-10-04T01:57:10;8.07;;;3.50;;
45114;SDS011;30877;43.706;10.780;2022-10-04T01:59:43;9.25;;;3.90;;
45114;SDS011;30877;43.706;10.780;2022-10-04T02:02:20;5.30;;;3.90;;
45114;SDS011;30877;43.706;10.780;2022-10-04T02:07:21;6.30;;;3.20;;
45114;SDS011;30877;43.706;10.780;2022-10-04T02:09:55;6.75;;;3.13;;
45114;SDS011;30877;43.706;10.780;2022-10-04T02:12:27;6.57;;;3.42;;
45114;SDS011;30877;43.706;10.780;2022-10-04T02:15:00;6.97;;;3.50;;
45114;SDS011;30877;43.706;10.780;2022-10-04T02:17:32;6.88;;;2.92;;
45114;SDS011;30877;43.706;10.780;2022-10-04T02:20:07;4.55;;;3.08;;
45114;SDS011;30877;43.706;10.780;2022-10-04T02:22:39;5.90;;;3.00;;
45114;SDS011;30877;43.706;10.780;2022-10-04T02:25:10;5.00;;;3.30;;
45114;SDS011;30877;43.706;10.780;2022-10-04T02:27:40;4.75;;;3.75;;
45114;SDS011;30877;43.706;10.780;2022-10-04T02:30:10;4.55;;;2.97;;
45114;SDS011;30877;43.706;10.780;2022-10-04T02:32:40;5.68;;;3.25;;
45114;SDS011;30877;43.706;10.780;2022-10-04T02:35:26;5.63;;;3.17;;
45114;SDS011;30877;43.706;10.780;2022-10-04T02:38:03;4.50;;;3.05;;
45114;SDS011;30877;43.706;10.780;2022-10-04T02:40:43;5.90;;;3.55;;
45114;SDS011;30877;43.706;10.780;2022-10-04T02:43:17;4.40;;;3.03;;
45114;SDS011;30877;43.706;10.780;2022-10-04T02:45:49;4.05;;;2.90;;
45114;SDS011;30877;43.706;10.780;2022-10-04T02:48:25;4.22;;;2.72;;
45114;SDS011;30877;43.706;10.780;2022-10-04T02:50:59;5.45;;;2.78;;
45114;SDS011;30877;43.706;10.780;2022-10-04T02:53:35;3.28;;;2.55;;
45114;SDS011;30877;43.706;10.780;2022-10-04T02:56:11;5.40;;;2.60;;
45114;SDS011;30877;43.706;10.780;2022-10-04T02:58:39;2.95;;;2.30;;
45114;SDS011;30877;43.706;10.780;2022-10-04T03:01:13;5.28;;;2.55;;
45114;SDS011;30877;43.706;10.780;2022-10-04T03:03:44;4.88;;;2.13;;
45114;SDS011;30877;43.706;10.780;2022-10-04T03:06:14;2.72;;;2.25;;
45114;SDS011;30877;43.706;10.780;2022-10-04T03:08:46;4.57;;;2.17;;
45114;SDS011;30877;43.706;10.780;2022-10-04T03:11:19;3.65;;;2.17;;
45114;SDS011;30877;43.706;10.780;2022-10-04T03:13:49;5.65;;;2.20;;
45114;SDS011;30877;43.706;10.780;2022-10-04T03:16:20;2.92;;;2.22;;
45114;SDS011;30877;43.706;10.780;2022-10-04T03:18:49;5.43;;;2.03;;
45114;SDS011;30877;43.706;10.780;2022-10-04T03:21:19;7.70;;;2.55;;
45114;SDS011;30877;43.706;10.780;2022-10-04T03:23:49;4.45;;;2.10;;
45114;SDS011;30877;43.706;10.780;2022-10-04T03:26:23;3.70;;;1.80;;
45114;SDS011;30877;43.706;10.780;2022-10-04T03:28:58;4.70;;;1.90;;
45114;SDS011;30877;43.706;10.780;2022-10-04T03:31:27;2.85;;;1.67;;
45114;SDS011;30877;43.706;10.780;2022-10-04T03:33:56;2.42;;;1.50;;
45114;SDS011;30877;43.706;10.780;2022-10-04T03:36:24;1.60;;;1.40;;
45114;SDS011;30877;43.706;10.780;2022-10-04T03:38:53;2.95;;;1.33;;
45114;SDS011;30877;43.706;10.780;2022-10-04T03:41:24;3.35;;;1.38;;
45114;SDS011;30877;43.706;10.780;2022-10-04T03:43:53;4.03;;;1.52;;
45114;SDS011;30877;43.706;10.780;2022-10-04T03:46:27;3.50;;;1.50;;
45114;SDS011;30877;43.706;10.780;2022-10-04T03:48:55;2.58;;;1.48;;
45114;SDS011;30877;43.706;10.780;2022-10-04T03:51:25;2.78;;;1.05;;
45114;SDS011;30877;43.706;10.780;2022-10-04T03:53:53;4.22;;;1.55;;
45114;SDS011;30877;43.706;10.780;2022-10-04T03:56:26;2.65;;;1.40;;
45114;SDS011;30877;43.706;10.780;2022-10-04T03:58:56;3.47;;;1.08;;
45114;SDS011;30877;43.706;10.780;2022-10-04T04:01:35;1.95;;;1.25;;
45114;SDS011;30877;43.706;10.780;2022-10-04T04:04:10;1.48;;;1.23;;
45114;SDS011;30877;43.706;10.780;2022-10-04T04:06:46;1.83;;;1.20;;
45114;SDS011;30877;43.706;10.780;2022-10-04T04:09:20;2.33;;;1.08;;
45114;SDS011;30877;43.706;10.780;2022-10-04T04:11:52;3.85;;;1.50;;
45114;SDS011;30877;43.706;10.780;2022-10-04T04:14:23;2.42;;;1.30;;
45114;SDS011;30877;43.706;10.780;2022-10-04T04:17:15;2.28;;;1.52;;
45114;SDS011;30877;43.706;10.780;2022-10-04T04:19:56;3.92;;;1.77;;
45114;SDS011;30877;43.706;10.780;2022-10-04T04:22:31;2.08;;;1.60;;
45114;SDS011;30877;43.706;10.780;2022-10-04T04:25:02;2.47;;;1.80;;
45114;SDS011;30877;43.706;10.780;2022-10-04T04:27:36;2.63;;;1.58;;
45114;SDS011;30877;43.706;10.780;2022-10-04T04:30:11;2.63;;;1.73;;
45114;SDS011;30877;43.706;10.780;2022-10-04T04:32:44;5.10;;;1.97;;
45114;SDS011;30877;43.706;10.780;2022-10-04T04:35:20;5.35;;;2.53;;
45114;SDS011;30877;43.706;10.780;2022-10-04T04:38:09;7.13;;;2.92;;
45114;SDS011;30877;43.706;10.780;2022-10-04T04:40:43;9.68;;;3.00;;
45114;SDS011;30877;43.706;10.780;2022-10-04T04:43:15;7.50;;;2.90;;
45114;SDS011;30877;43.706;10.780;2022-10-04T04:45:45;6.50;;;2.55;;
45114;SDS011;30877;43.706;10.780;2022-10-04T04:48:34;7.28;;;3.03;;
45114;SDS011;30877;43.706;10.780;2022-10-04T04:51:03;6.35;;;2.50;;
45114;SDS011;30877;43.706;10.780;2022-10-04T04:53:31;5.85;;;2.63;;
45114;SDS011;30877;43.706;10.780;2022-10-04T04:56:00;7.53;;;2.47;;
45114;SDS011;30877;43.706;10.780;2022-10-04T04:58:32;5.65;;;2.70;;
45114;SDS011;30877;43.706;10.780;2022-10-04T05:01:04;6.60;;;2.13;;
45114;SDS011;30877;43.706;10.780;2022-10-04T05:03:39;6.07;;;2.63;;
45114;SDS011;30877;43.706;10.780;2022-10-04T05:06:17;4.10;;;1.95;;
45114;SDS011;30877;43.706;10.780;2022-10-04T05:08:51;6.18;;;2.70;;
45114;SDS011;30877;43.706;10.780;2022-10-04T05:11:19;6.07;;;2.75;;
45114;SDS011;30877;43.706;10.780;2022-10-04T05:13:52;5.35;;;2.08;;
45114;SDS011;30877;43.706;10.780;2022-10-04T05:16:24;7.43;;;3.20;;
45114;SDS011;30877;43.706;10.780;2022-10-04T05:18:58;4.28;;;2.50;;
45114;SDS011;30877;43.706;10.780;2022-10-04T05:21:29;6.35;;;2.58;;
45114;SDS011;30877;43.706;10.780;2022-10-04T05:24:05;4.85;;;3.45;;
45114;SDS011;30877;43.706;10.780;2022-10-04T05:26:36;6.20;;;3.45;;
45114;SDS011;30877;43.706;10.780;2022-10-04T05:29:09;6.13;;;4.28;;
45114;SDS011;30877;43.706;10.780;2022-10-04T05:31:44;7.47;;;3.63;;
45114;SDS011;30877;43.706;10.780;2022-10-04T05:34:17;7.25;;;3.70;;
45114;SDS011;30877;43.706;10.780;2022-10-04T05:36:56;6.10;;;2.70;;
45114;SDS011;30877;43.706;10.780;2022-10-04T05:39:34;7.97;;;2.90;;
45114;SDS011;30877;43.706;10.780;2022-10-04T05:42:10;5.15;;;2.35;;
45114;SDS011;30877;43.706;10.780;2022-10-04T05:44:48;4.38;;;2.50;;
45114;SDS011;30877;43.706;10.780;2022-10-04T05:47:18;10.07;;;3.42;;
45114;SDS011;30877;43.706;10.780;2022-10-04T05:49:50;7.53;;;3.22;;
45114;SDS011;30877;43.706;10.780;2022-10-04T05:52:27;6.57;;;3.80;;
45114;SDS011;30877;43.706;10.780;2022-10-04T05:55:16;10.18;;;3.90;;
45114;SDS011;30877;43.706;10.780;2022-10-04T05:57:57;11.13;;;4.32;;
45114;SDS011;30877;43.706;10.780;2022-10-04T06:01:00;8.32;;;4.07;;
45114;SDS011;30877;43.706;10.780;2022-10-04T06:03:47;9.32;;;4.68;;
45114;SDS011;30877;43.706;10.780;2022-10-04T06:06:27;12.50;;;4.30;;
45114;SDS011;30877;43.706;10.780;2022-10-04T06:09:06;9.38;;;4.28;;
45114;SDS011;30877;43.706;10.780;2022-10-04T06:11:42;9.45;;;4.03;;
45114;SDS011;30877;43.706;10.780;2022-10-04T06:14:29;9.43;;;3.38;;
45114;SDS011;30877;43.706;10.780;2022-10-04T06:17:25;9.90;;;3.85;;
45114;SDS011;30877;43.706;10.780;2022-10-04T06:20:19;6.93;;;3.20;;
45114;SDS011;30877;43.706;10.780;2022-10-04T06:23:04;7.47;;;3.00;;
45114;SDS011;30877;43.706;10.780;2022-10-04T06:25:38;6.93;;;3.40;;
45114;SDS011;30877;43.706;10.780;2022-10-04T06:28:13;8.48;;;2.92;;
45114;SDS011;30877;43.706;10.780;2022-10-04T06:30:50;7.95;;;3.00;;
45114;SDS011;30877;43.706;10.780;2022-10-04T06:33:41;4.88;;;2.65;;
45114;SDS011;30877;43.706;10.780;2022-10-04T06:36:33;3.75;;;2.30;;
45114;SDS011;30877;43.706;10.780;2022-10-04T06:39:32;9.05;;;2.97;;
45114;SDS011;30877;43.706;10.780;2022-10-04T06:42:24;7.07;;;2.70;;
45114;SDS011;30877;43.706;10.780;2022-10-04T06:45:19;4.72;;;2.40;;
45114;SDS011;30877;43.706;10.780;2022-10-04T06:48:05;4.80;;;2.33;;
45114;SDS011;30877;43.706;10.780;2022-10-04T06:50:51;5.93;;;2.70;;
45114;SDS011;30877;43.706;10.780;2022-10-04T06:53:30;7.53;;;2.88;;
45114;SDS011;30877;43.706;10.780;2022-10-04T06:56:17;3.97;;;2.78;;
45114;SDS011;30877;43.706;10.780;2022-10-04T06:59:00;5.00;;;2.42;;
45114;SDS011;30877;43.706;10.780;2022-10-04T07:01:48;6.22;;;2.65;;
45114;SDS011;30877;43.706;10.780;2022-10-04T07:04:21;3.75;;;2.30;;
45114;SDS011;30877;43.706;10.780;2022-10-04T07:07:21;5.22;;;2.53;;
45114;SDS011;30877;43.706;10.780;2022-10-04T07:10:11;7.20;;;2.97;;
45114;SDS011;30877;43.706;10.780;2022-10-04T07:12:52;5.95;;;3.03;;
45114;SDS011;30877;43.706;10.780;2022-10-04T07:15:32;5.15;;;3.08;;
45114;SDS011;30877;43.706;10.780;2022-10-04T07:18:11;5.70;;;3.10;;
45114;SDS011;30877;43.706;10.780;2022-10-04T07:20:44;4.32;;;2.72;;
45114;SDS011;30877;43.706;10.780;2022-10-04T07:23:19;5.38;;;2.65;;
45114;SDS011;30877;43.706;10.780;2022-10-04T07:25:54;6.75;;;3.50;;
45114;SDS011;30877;43.706;10.780;2022-10-04T07:28:28;4.72;;;3.13;;
45114;SDS011;30877;43.706;10.780;2022-10-04T07:31:22;5.35;;;2.90;;
45114;SDS011;30877;43.706;10.780;2022-10-04T07:33:55;6.38;;;3.50;;
45114;SDS011;30877;43.706;10.780;2022-10-04T07:36:27;5.63;;;2.88;;
45114;SDS011;30877;43.706;10.780;2022-10-04T07:38:59;5.35;;;2.80;;
45114;SDS011;30877;43.706;10.780;2022-10-04T07:41:33;4.45;;;3.15;;
45114;SDS011;30877;43.706;10.780;2022-10-04T07:44:05;7.35;;;4.00;;
45114;SDS011;30877;43.706;10.780;2022-10-04T07:46:43;7.28;;;3.92;;
45114;SDS011;30877;43.706;10.780;2022-10-04T07:49:16;5.78;;;4.38;;
45114;SDS011;30877;43.706;10.780;2022-10-04T07:54:41;11.75;;;6.55;;
45114;SDS011;30877;43.706;10.780;2022-10-04T07:57:14;9.43;;;6.72;;
45114;SDS011;30877;43.706;10.780;2022-10-04T07:59:51;9.25;;;6.80;;
45114;SDS011;30877;43.706;10.780;2022-10-04T08:02:26;9.30;;;7.38;;
45114;SDS011;30877;43.706;10.780;2022-10-04T08:05:18;10.38;;;6.10;;
45114;SDS011;30877;43.706;10.780;2022-10-04T08:07:55;10.80;;;5.90;;
45114;SDS011;30877;43.706;10.780;2022-10-04T08:10:38;9.43;;;5.53;;
45114;SDS011;30877;43.706;10.780;2022-10-04T08:13:21;8.52;;;5.28;;
45114;SDS011;30877;43.706;10.780;2022-10-04T08:15:53;7.88;;;4.60;;
45114;SDS011;30877;43.706;10.780;2022-10-04T08:18:35;7.18;;;4.30;;
45114;SDS011;30877;43.706;10.780;2022-10-04T08:21:13;6.18;;;3.28;;
45114;SDS011;30877;43.706;10.780;2022-10-04T08:23:51;7.65;;;3.53;;
45114;SDS011;30877;43.706;10.780;2022-10-04T08:26:42;5.90;;;3.05;;
45114;SDS011;30877;43.706;10.780;2022-10-04T08:32:13;4.40;;;2.47;;
45114;SDS011;30877;43.706;10.780;2022-10-04T08:35:10;5.60;;;2.70;;
45114;SDS011;30877;43.706;10.780;2022-10-04T08:38:08;4.50;;;2.65;;
45114;SDS011;30877;43.706;10.780;2022-10-04T08:44:09;7.28;;;2.72;;
45114;SDS011;30877;43.706;10.780;2022-10-04T08:50:22;6.25;;;3.00;;
45114;SDS011;30877;43.706;10.780;2022-10-04T08:56:19;4.63;;;2.15;;
45114;SDS011;30877;43.706;10.780;2022-10-04T08:59:10;4.35;;;1.90;;
45114;SDS011;30877;43.706;10.780;2022-10-04T09:08:00;6.72;;;2.22;;
45114;SDS011;30877;43.706;10.780;2022-10-04T09:10:46;8.10;;;2.22;;
45114;SDS011;30877;43.706;10.780;2022-10-04T09:13:35;3.38;;;1.90;;
45114;SDS011;30877;43.706;10.780;2022-10-04T09:16:16;3.70;;;1.55;;
45114;SDS011;30877;43.706;10.780;2022-10-04T09:18:49;4.68;;;1.52;;
45114;SDS011;30877;43.706;10.780;2022-10-04T09:21:27;3.95;;;1.58;;
45114;SDS011;30877;43.706;10.780;2022-10-04T09:24:18;4.85;;;1.70;;
45114;SDS011;30877;43.706;10.780;2022-10-04T09:27:04;3.63;;;1.75;;
45114;SDS011;30877;43.706;10.780;2022-10-04T09:30:10;2.13;;;1.30;;
45114;SDS011;30877;43.706;10.780;2022-10-04T09:32:56;5.10;;;1.83;;
45114;SDS011;30877;43.706;10.780;2022-10-04T09:35:58;2.63;;;1.63;;
45114;SDS011;30877;43.706;10.780;2022-10-04T09:39:00;3.50;;;1.75;;
45114;SDS011;30877;43.706;10.780;2022-10-04T09:42:06;4.18;;;2.20;;
45114;SDS011;30877;43.706;10.780;2022-10-04T09:48:07;3.55;;;2.22;;
45114;SDS011;30877;43.706;10.780;2022-10-04T09:51:19;4.90;;;1.98;;
45114;SDS011;30877;43.706;10.780;2022-10-04T09:54:13;4.20;;;2.03;;
45114;SDS011;30877;43.706;10.780;2022-10-04T09:57:17;5.03;;;1.90;;
45114;SDS011;30877;43.706;10.780;2022-10-04T09:59:57;4.75;;;2.05;;
45114;SDS011;30877;43.706;10.780;2022-10-04T10:06:06;2.63;;;1.67;;
45114;SDS011;30877;43.706;10.780;2022-10-04T10:08:52;3.95;;;1.80;;
45114;SDS011;30877;43.706;10.780;2022-10-04T10:11:33;3.78;;;2.08;;
45114;SDS011;30877;43.706;10.780;2022-10-04T10:17:23;6.38;;;2.55;;
45114;SDS011;30877;43.706;10.780;2022-10-04T10:23:01;3.08;;;1.65;;
45114;SDS011;30877;43.706;10.780;2022-10-04T10:28:58;1.98;;;1.60;;
45114;SDS011;30877;43.706;10.780;2022-10-04T10:31:49;3.33;;;1.65;;
45114;SDS011;30877;43.706;10.780;2022-10-04T10:37:46;3.85;;;2.00;;
45114;SDS011;30877;43.706;10.780;2022-10-04T10:40:33;5.93;;;1.75;;
45114;SDS011;30877;43.706;10.780;2022-10-04T10:46:03;3.97;;;1.90;;
45114;SDS011;30877;43.706;10.780;2022-10-04T10:48:53;3.03;;;1.55;;
45114;SDS011;30877;43.706;10.780;2022-10-04T10:51:39;5.07;;;1.50;;
45114;SDS011;30877;43.706;10.780;2022-10-04T10:54:43;2.60;;;1.58;;
45114;SDS011;30877;43.706;10.780;2022-10-04T10:57:38;3.13;;;1.40;;
45114;SDS011;30877;43.706;10.780;2022-10-04T11:00:25;2.80;;;1.60;;
45114;SDS011;30877;43.706;10.780;2022-10-04T11:03:22;3.47;;;1.50;;
45114;SDS011;30877;43.706;10.780;2022-10-04T11:06:13;3.08;;;1.27;;
45114;SDS011;30877;43.706;10.780;2022-10-04T11:12:01;3.67;;;1.13;;
45114;SDS011;30877;43.706;10.780;2022-10-04T11:14:54;3.53;;;1.40;;
45114;SDS011;30877;43.706;10.780;2022-10-04T11:20:39;2.50;;;1.42;;
45114;SDS011;30877;43.706;10.780;2022-10-04T11:26:52;4.47;;;1.30;;
45114;SDS011;30877;43.706;10.780;2022-10-04T11:29:40;3.03;;;1.38;;
45114;SDS011;30877;43.706;10.780;2022-10-04T11:32:28;2.80;;;1.35;;
45114;SDS011;30877;43.706;10.780;2022-10-04T11:38:21;2.15;;;1.50;;
45114;SDS011;30877;43.706;10.780;2022-10-04T11:41:08;2.25;;;1.45;;
45114;SDS011;30877;43.706;10.780;2022-10-04T11:46:42;2.45;;;1.40;;
45114;SDS011;30877;43.706;10.780;2022-10-04T11:49:37;2.65;;;1.23;;
45114;SDS011;30877;43.706;10.780;2022-10-04T11:52:21;3.17;;;1.58;;
45114;SDS011;30877;43.706;10.780;2022-10-04T11:55:31;2.47;;;1.38;;
45114;SDS011;30877;43.706;10.780;2022-10-04T11:58:23;3.55;;;1.60;;
45114;SDS011;30877;43.706;10.780;2022-10-04T12:01:10;2.85;;;1.17;;
45114;SDS011;30877;43.706;10.780;2022-10-04T12:04:15;2.95;;;1.20;;
45114;SDS011;30877;43.706;10.780;2022-10-04T12:07:03;2.08;;;1.05;;
45114;SDS011;30877;43.706;10.780;2022-10-04T12:09:51;2.92;;;1.10;;
45114;SDS011;30877;43.706;10.780;2022-10-04T12:12:32;2.45;;;1.27;;
45114;SDS011;30877;43.706;10.780;2022-10-04T12:18:11;4.43;;;1.00;;
45114;SDS011;30877;43.706;10.780;2022-10-04T12:21:28;2.70;;;1.02;;
45114;SDS011;30877;43.706;10.780;2022-10-04T12:27:44;2.15;;;0.80;;
45114;SDS011;30877;43.706;10.780;2022-10-04T12:30:28;2.72;;;0.70;;
45114;SDS011;30877;43.706;10.780;2022-10-04T12:33:08;1.52;;;0.90;;
45114;SDS011;30877;43.706;10.780;2022-10-04T12:35:50;2.05;;;0.68;;
45114;SDS011;30877;43.706;10.780;2022-10-04T12:41:22;2.08;;;0.90;;
45114;SDS011;30877;43.706;10.780;2022-10-04T12:43:59;1.70;;;0.70;;
45114;SDS011;30877;43.706;10.780;2022-10-04T12:46:41;1.23;;;0.60;;
45114;SDS011;30877;43.706;10.780;2022-10-04T12:49:23;1.70;;;0.60;;
45114;SDS011;30877;43.706;10.780;2022-10-04T12:52:02;1.92;;;0.60;;
45114;SDS011;30877;43.706;10.780;2022-10-04T12:54:37;1.20;;;0.70;;
45114;SDS011;30877;43.706;10.780;2022-10-04T13:00:14;2.00;;;0.73;;
45114;SDS011;30877;43.706;10.780;2022-10-04T13:03:01;3.15;;;0.82;;
45114;SDS011;30877;43.706;10.780;2022-10-04T13:05:53;2.80;;;0.95;;
45114;SDS011;30877;43.706;10.780;2022-10-04T13:08:38;3.05;;;0.82;;
45114;SDS011;30877;43.706;10.780;2022-10-04T13:14:30;4.13;;;0.90;;
45114;SDS011;30877;43.706;10.780;2022-10-04T13:17:20;1.00;;;0.55;;
45114;SDS011;30877;43.706;10.780;2022-10-04T13:20:10;1.65;;;0.63;;
45114;SDS011;30877;43.706;10.780;2022-10-04T13:22:49;1.13;;;0.65;;
45114;SDS011;30877;43.706;10.780;2022-10-04T13:25:28;2.25;;;1.05;;
45114;SDS011;30877;43.706;10.780;2022-10-04T13:28:14;1.27;;;1.02;;
45114;SDS011;30877;43.706;10.780;2022-10-04T13:30:52;1.70;;;0.73;;
45114;SDS011;30877;43.706;10.780;2022-10-04T13:33:29;3.65;;;1.30;;
45114;SDS011;30877;43.706;10.780;2022-10-04T13:36:08;2.70;;;1.15;;
45114;SDS011;30877;43.706;10.780;2022-10-04T13:38:52;2.10;;;0.95;;
45114;SDS011;30877;43.706;10.780;2022-10-04T13:41:37;2.85;;;1.23;;
45114;SDS011;30877;43.706;10.780;2022-10-04T13:44:34;2.08;;;0.90;;
45114;SDS011;30877;43.706;10.780;2022-10-04T13:47:18;2.15;;;1.08;;
45114;SDS011;30877;43.706;10.780;2022-10-04T13:50:06;2.97;;;1.02;;
45114;SDS011;30877;43.706;10.780;2022-10-04T13:52:53;2.28;;;0.90;;
45114;SDS011;30877;43.706;10.780;2022-10-04T13:55:54;2.90;;;1.20;;
45114;SDS011;30877;43.706;10.780;2022-10-04T13:58:46;2.95;;;1.15;;
45114;SDS011;30877;43.706;10.780;2022-10-04T14:04:41;3.28;;;1.17;;
45114;SDS011;30877;43.706;10.780;2022-10-04T14:10:53;5.03;;;0.88;;
45114;SDS011;30877;43.706;10.780;2022-10-04T14:13:51;2.25;;;0.80;;
45114;SDS011;30877;43.706;10.780;2022-10-04T14:16:46;2.15;;;0.88;;
45114;SDS011;30877;43.706;10.780;2022-10-04T14:19:42;2.25;;;1.05;;
45114;SDS011;30877;43.706;10.780;2022-10-04T14:22:43;1.40;;;1.02;;
45114;SDS011;30877;43.706;10.780;2022-10-04T14:31:55;2.80;;;1.63;;
45114;SDS011;30877;43.706;10.780;2022-10-04T14:34:48;2.72;;;1.30;;
45114;SDS011;30877;43.706;10.780;2022-10-04T14:37:43;2.20;;;1.20;;
45114;SDS011;30877;43.706;10.780;2022-10-04T14:40:59;2.20;;;1.00;;
45114;SDS011;30877;43.706;10.780;2022-10-04T14:44:16;2.53;;;1.15;;
45114;SDS011;30877;43.706;10.780;2022-10-04T14:50:48;4.85;;;1.20;;
45114;SDS011;30877;43.706;10.780;2022-10-04T14:53:32;2.80;;;1.17;;
45114;SDS011;30877;43.706;10.780;2022-10-04T14:59:26;4.03;;;1.98;;
45114;SDS011;30877;43.706;10.780;2022-10-04T15:02:34;5.95;;;1.92;;
45114;SDS011;30877;43.706;10.780;2022-10-04T15:05:23;3.73;;;1.87;;
45114;SDS011;30877;43.706;10.780;2022-10-04T15:08:14;4.57;;;2.25;;
45114;SDS011;30877;43.706;10.780;2022-10-04T15:11:00;4.88;;;2.35;;
45114;SDS011;30877;43.706;10.780;2022-10-04T15:13:34;2.38;;;1.50;;
45114;SDS011;30877;43.706;10.780;2022-10-04T15:16:09;11.13;;;4.82;;
45114;SDS011;30877;43.706;10.780;2022-10-04T15:18:46;35.28;;;15.15;;
45114;SDS011;30877;43.706;10.780;2022-10-04T15:24:21;18.35;;;8.02;;
45114;SDS011;30877;43.706;10.780;2022-10-04T15:30:00;6.25;;;3.30;;
45114;SDS011;30877;43.706;10.780;2022-10-04T15:32:37;7.05;;;2.33;;
45114;SDS011;30877;43.706;10.780;2022-10-04T15:35:16;4.68;;;1.95;;
45114;SDS011;30877;43.706;10.780;2022-10-04T15:37:52;6.25;;;2.28;;
45114;SDS011;30877;43.706;10.780;2022-10-04T15:40:29;10.35;;;2.30;;
45114;SDS011;30877;43.706;10.780;2022-10-04T15:43:08;12.30;;;2.53;;
45114;SDS011;30877;43.706;10.780;2022-10-04T15:52:00;6.35;;;1.80;;
45114;SDS011;30877;43.706;10.780;2022-10-04T15:57:56;7.07;;;2.33;;
45114;SDS011;30877;43.706;10.780;2022-10-04T16:00:44;7.60;;;2.10;;
45114;SDS011;30877;43.706;10.780;2022-10-04T16:03:22;4.00;;;1.90;;
45114;SDS011;30877;43.706;10.780;2022-10-04T16:06:07;6.25;;;1.70;;
45114;SDS011;30877;43.706;10.780;2022-10-04T16:08:45;3.88;;;1.70;;
45114;SDS011;30877;43.706;10.780;2022-10-04T16:11:27;3.28;;;2.08;;
45114;SDS011;30877;43.706;10.780;2022-10-04T16:16:59;4.47;;;2.00;;
45114;SDS011;30877;43.706;10.780;2022-10-04T16:19:42;5.35;;;2.28;;
45114;SDS011;30877;43.706;10.780;2022-10-04T16:22:41;4.07;;;2.10;;
45114;SDS011;30877;43.706;10.780;2022-10-04T16:25:52;6.05;;;2.30;;
45114;SDS011;30877;43.706;10.780;2022-10-04T16:28:26;4.97;;;2.35;;
45114;SDS011;30877;43.706;10.780;2022-10-04T16:31:20;6.18;;;2.42;;
45114;SDS011;30877;43.706;10.780;2022-10-04T16:33:58;5.45;;;2.65;;
45114;SDS011;30877;43.706;10.780;2022-10-04T16:36:41;3.60;;;2.78;;
45114;SDS011;30877;43.706;10.780;2022-10-04T16:39:59;6.15;;;2.90;;
45114;SDS011;30877;43.706;10.780;2022-10-04T16:42:33;2.88;;;2.33;;
45114;SDS011;30877;43.706;10.780;2022-10-04T16:45:27;5.35;;;2.53;;
45114;SDS011;30877;43.706;10.780;2022-10-04T16:48:20;4.63;;;1.90;;
45114;SDS011;30877;43.706;10.780;2022-10-04T16:51:00;5.95;;;2.35;;
45114;SDS011;30877;43.706;10.780;2022-10-04T16:53:52;11.67;;;2.60;;
45114;SDS011;30877;43.706;10.780;2022-10-04T16:56:26;6.68;;;2.95;;
45114;SDS011;30877;43.706;10.780;2022-10-04T16:58:56;10.95;;;3.20;;
45114;SDS011;30877;43.706;10.780;2022-10-04T17:07:36;6.85;;;2.97;;
45114;SDS011;30877;43.706;10.780;2022-10-04T17:10:28;6.53;;;2.80;;
45114;SDS011;30877;43.706;10.780;2022-10-04T17:13:05;4.43;;;2.22;;
45114;SDS011;30877;43.706;10.780;2022-10-04T17:15:45;4.72;;;2.10;;
45114;SDS011;30877;43.706;10.780;2022-10-04T17:18:18;4.75;;;2.38;;
45114;SDS011;30877;43.706;10.780;2022-10-04T17:20:59;3.88;;;2.20;;
45114;SDS011;30877;43.706;10.780;2022-10-04T17:26:34;5.80;;;2.33;;
45114;SDS011;30877;43.706;10.780;2022-10-04T17:29:26;4.82;;;2.30;;
45114;SDS011;30877;43.706;10.780;2022-10-04T17:32:04;3.25;;;2.00;;
45114;SDS011;30877;43.706;10.780;2022-10-04T17:34:47;7.75;;;2.15;;
45114;SDS011;30877;43.706;10.780;2022-10-04T17:37:28;2.55;;;1.92;;
45114;SDS011;30877;43.706;10.780;2022-10-04T17:40:06;6.45;;;2.80;;
45114;SDS011;30877;43.706;10.780;2022-10-04T17:43:11;6.80;;;2.65;;
45114;SDS011;30877;43.706;10.780;2022-10-04T17:48:43;6.47;;;2.08;;
45114;SDS011;30877;43.706;10.780;2022-10-04T17:51:50;7.07;;;2.97;;
45114;SDS011;30877;43.706;10.780;2022-10-04T17:54:41;6.10;;;3.33;;
45114;SDS011;30877;43.706;10.780;2022-10-04T17:57:36;5.78;;;2.90;;
45114;SDS011;30877;43.706;10.780;2022-10-04T18:00:09;6.47;;;3.50;;
45114;SDS011;30877;43.706;10.780;2022-10-04T18:05:34;10.35;;;3.95;;
45114;SDS011;30877;43.706;10.780;2022-10-04T18:08:14;5.60;;;4.13;;
45114;SDS011;30877;43.706;10.780;2022-10-04T18:10:48;5.40;;;3.55;;
45114;SDS011;30877;43.706;10.780;2022-10-04T18:13:20;8.48;;;3.47;;